sensor_id;sensor_type;location;lat;lon;timestamp;temperature;humidity
75517;DHT22;64097;52.548;13.406;2022-10-17T06:02:32;18.80;68.90
75517;DHT22;64097;52.548;13.406;2022-10-17T06:04:57;18.80;68.70
75517;DHT22;64097;52.548;13.406;2022-10-17T06:07:23;18.80;68.90
75517;DHT22;64097;52.548;13.406;2022-10-17T06:09:49;18.90;68.90
75517;DHT22;64097;52.548;13.406;2022-10-17T06:12:14;18.90;69.00
75517;DHT22;64097;52.548;13.406;2022-10-17T06:14:40;18.90;68.90
75517;DHT22;64097;52.548;13.406;2022-10-17T06:17:06;18.90;69.00
75517;DHT22;64097;52.548;13.406;2022-10-17T06:19:31;18.90;68.90
75517;DHT22;64097;52.548;13.406;2022-10-17T06:21:57;18.90;68.90
75517;DHT22;64097;52.548;13.406;2022-10-17T06:24:23;18.90;68.80
75517;DHT22;64097;52.548;13.406;2022-10-17T06:26:48;19.00;68.90
75517;DHT22;64097;52.548;13.406;2022-10-17T06:29:15;19.00;68.90
75517;DHT22;64097;52.548;13.406;2022-10-17T06:31:41;19.00;68.90
75517;DHT22;64097;52.548;13.406;2022-10-17T06:34:06;19.00;68.90
75517;DHT22;64097;52.548;13.406;2022-10-17T06:36:32;19.00;68.80
75517;DHT22;64097;52.548;13.406;2022-10-17T06:38:58;19.00;68.70
75517;DHT22;64097;52.548;13.406;2022-10-17T06:41:23;19.10;68.80
75517;DHT22;64097;52.548;13.406;2022-10-17T06:43:49;19.10;68.90
75517;DHT22;64097;52.548;13.406;2022-10-17T06:46:17;19.10;68.80
75517;DHT22;64097;52.548;13.406;2022-10-17T06:48:43;19.10;68.90
75517;DHT22;64097;52.548;13.406;2022-10-17T06:51:09;19.10;68.80
75517;DHT22;64097;52.548;13.406;2022-10-17T06:53:36;19.10;69.80
75517;DHT22;64097;52.548;13.406;2022-10-17T06:56:03;19.20;68.80
75517;DHT22;64097;52.548;13.406;2022-10-17T06:58:31;19.20;68.90
75517;DHT22;64097;52.548;13.406;2022-10-17T07:01:09;19.20;68.80
75517;DHT22;64097;52.548;13.406;2022-10-17T07:03:36;19.20;68.80
75517;DHT22;64097;52.548;13.406;2022-10-17T07:06:02;19.20;68.80
75517;DHT22;64097;52.548;13.406;2022-10-17T07:08:28;19.30;68.80
75517;DHT22;64097;52.548;13.406;2022-10-17T07:10:54;19.30;68.80
75517;DHT22;64097;52.548;13.406;2022-10-17T07:13:21;19.30;68.70
75517;DHT22;64097;52.548;13.406;2022-10-17T07:15:47;19.40;68.80
75517;DHT22;64097;52.548;13.406;2022-10-17T07:18:13;19.40;68.80
75517;DHT22;64097;52.548;13.406;2022-10-17T07:20:39;19.40;68.70
75517;DHT22;64097;52.548;13.406;2022-10-17T07:23:05;19.50;68.70
75517;DHT22;64097;52.548;13.406;2022-10-17T07:25:31;19.50;68.50
75517;DHT22;64097;52.548;13.406;2022-10-17T07:27:56;19.50;68.50
75517;DHT22;64097;52.548;13.406;2022-10-17T07:30:22;19.50;68.30
75517;DHT22;64097;52.548;13.406;2022-10-17T07:32:51;19.60;68.30
75517;DHT22;64097;52.548;13.406;2022-10-17T07:35:17;19.60;68.20
75517;DHT22;64097;52.548;13.406;2022-10-17T07:37:42;19.60;68.10
75517;DHT22;64097;52.548;13.406;2022-10-17T07:40:09;19.60;68.00
75517;DHT22;64097;52.548;13.406;2022-10-17T07:42:38;19.70;68.00
75517;DHT22;64097;52.548;13.406;2022-10-17T07:45:04;19.70;68.00
75517;DHT22;64097;52.548;13.406;2022-10-17T07:47:35;19.70;67.90
75517;DHT22;64097;52.548;13.406;2022-10-17T07:50:02;19.80;67.90
75517;DHT22;64097;52.548;13.406;2022-10-17T07:52:28;19.80;67.70
75517;DHT22;64097;52.548;13.406;2022-10-17T07:54:53;19.80;67.70
75517;DHT22;64097;52.548;13.406;2022-10-17T07:57:19;19.90;67.60
75517;DHT22;64097;52.548;13.406;2022-10-17T07:59:44;19.90;67.50
75517;DHT22;64097;52.548;13.406;2022-10-17T08:02:23;20.00;67.50
75517;DHT22;64097;52.548;13.406;2022-10-17T08:04:49;20.00;67.40
75517;DHT22;64097;52.548;13.406;2022-10-17T08:07:15;20.00;67.20
75517;DHT22;64097;52.548;13.406;2022-10-17T08:09:42;20.10;67.10
75517;DHT22;64097;52.548;13.406;2022-10-17T08:12:07;20.10;67.00
75517;DHT22;64097;52.548;13.406;2022-10-17T08:14:33;20.10;66.90
75517;DHT22;64097;52.548;13.406;2022-10-17T08:16:59;20.10;66.80
75517;DHT22;64097;52.548;13.406;2022-10-17T08:19:24;20.20;66.90
75517;DHT22;64097;52.548;13.406;2022-10-17T08:21:50;20.20;66.80
75517;DHT22;64097;52.548;13.406;2022-10-17T08:24:17;20.30;66.70
75517;DHT22;64097;52.548;13.406;2022-10-17T08:26:43;20.30;66.70
75517;DHT22;64097;52.548;13.406;2022-10-17T08:29:13;20.30;66.60
75517;DHT22;64097;52.548;13.406;2022-10-17T08:31:39;20.30;66.60
75517;DHT22;64097;52.548;13.406;2022-10-17T08:34:04;20.40;66.60
75517;DHT22;64097;52.548;13.406;2022-10-17T08:36:30;20.40;66.60
75517;DHT22;64097;52.548;13.406;2022-10-17T08:38:56;20.40;66.40
75517;DHT22;64097;52.548;13.406;2022-10-17T08:44:40;20.50;67.20
75517;DHT22;64097;52.548;13.406;2022-10-17T08:47:18;20.50;66.20
75517;DHT22;64097;52.548;13.406;2022-10-17T08:49:51;20.60;66.10
75517;DHT22;64097;52.548;13.406;2022-10-17T08:54:47;20.70;66.00
75517;DHT22;64097;52.548;13.406;2022-10-17T08:57:15;20.70;66.00
75517;DHT22;64097;52.548;13.406;2022-10-17T08:59:42;20.70;66.00
75517;DHT22;64097;52.548;13.406;2022-10-17T09:07:36;20.90;65.70
75517;DHT22;64097;52.548;13.406;2022-10-17T09:10:21;20.90;65.60
75517;DHT22;64097;52.548;13.406;2022-10-17T09:19:00;21.00;65.40
75517;DHT22;64097;52.548;13.406;2022-10-17T09:21:32;21.10;65.30
75517;DHT22;64097;52.548;13.406;2022-10-17T09:24:03;21.10;66.10
75517;DHT22;64097;52.548;13.406;2022-10-17T09:26:31;21.20;65.20
75517;DHT22;64097;52.548;13.406;2022-10-17T09:28:59;21.20;65.10
75517;DHT22;64097;52.548;13.406;2022-10-17T09:31:29;21.30;65.00
75517;DHT22;64097;52.548;13.406;2022-10-17T09:33:59;21.30;64.90
75517;DHT22;64097;52.548;13.406;2022-10-17T09:36:29;21.30;64.70
75517;DHT22;64097;52.548;13.406;2022-10-17T09:38:58;21.40;64.70
75517;DHT22;64097;52.548;13.406;2022-10-17T09:41:33;21.40;64.50
75517;DHT22;64097;52.548;13.406;2022-10-17T09:44:16;21.50;64.40
75517;DHT22;64097;52.548;13.406;2022-10-17T09:49:37;21.60;64.10
75517;DHT22;64097;52.548;13.406;2022-10-17T09:52:16;21.60;64.00
75517;DHT22;64097;52.548;13.406;2022-10-17T09:54:58;21.70;63.80
75517;DHT22;64097;52.548;13.406;2022-10-17T09:57:24;21.70;63.70
75517;DHT22;64097;52.548;13.406;2022-10-17T09:59:59;21.80;63.60
75517;DHT22;64097;52.548;13.406;2022-10-17T10:02:27;21.80;63.50
75517;DHT22;64097;52.548;13.406;2022-10-17T10:05:18;21.90;63.40
75517;DHT22;64097;52.548;13.406;2022-10-17T10:08:12;21.90;63.20
75517;DHT22;64097;52.548;13.406;2022-10-17T10:10:38;22.00;63.20
75517;DHT22;64097;52.548;13.406;2022-10-17T10:15:50;22.10;63.00
75517;DHT22;64097;52.548;13.406;2022-10-17T10:23:43;22.20;62.50
75517;DHT22;64097;52.548;13.406;2022-10-17T10:26:23;22.30;62.60
75517;DHT22;64097;52.548;13.406;2022-10-17T10:28:58;22.30;62.40
75517;DHT22;64097;52.548;13.406;2022-10-17T10:31:30;22.40;62.30
75517;DHT22;64097;52.548;13.406;2022-10-17T10:33:59;22.50;62.20
75517;DHT22;64097;52.548;13.406;2022-10-17T10:36:40;22.50;62.00
75517;DHT22;64097;52.548;13.406;2022-10-17T10:39:47;22.60;61.90
75517;DHT22;64097;52.548;13.406;2022-10-17T10:42:08;22.70;61.60
75517;DHT22;64097;52.548;13.406;2022-10-17T10:44:41;22.70;61.30
75517;DHT22;64097;52.548;13.406;2022-10-17T10:47:18;22.80;61.20
75517;DHT22;64097;52.548;13.406;2022-10-17T10:49:44;22.80;61.10
75517;DHT22;64097;52.548;13.406;2022-10-17T10:55:05;22.90;60.70
75517;DHT22;64097;52.548;13.406;2022-10-17T10:57:36;22.90;60.60
75517;DHT22;64097;52.548;13.406;2022-10-17T11:00:20;22.90;60.40
75517;DHT22;64097;52.548;13.406;2022-10-17T11:03:17;23.00;60.30
75517;DHT22;64097;52.548;13.406;2022-10-17T11:05:50;23.00;60.30
75517;DHT22;64097;52.548;13.406;2022-10-17T11:08:32;23.00;60.20
75517;DHT22;64097;52.548;13.406;2022-10-17T11:16:27;23.10;60.10
75517;DHT22;64097;52.548;13.406;2022-10-17T11:19:12;23.10;59.70
75517;DHT22;64097;52.548;13.406;2022-10-17T11:22:01;23.20;59.60
75517;DHT22;64097;52.548;13.406;2022-10-17T11:24:36;23.30;59.50
75517;DHT22;64097;52.548;13.406;2022-10-17T11:27:06;23.30;59.30
75517;DHT22;64097;52.548;13.406;2022-10-17T11:29:34;23.30;59.10
75517;DHT22;64097;52.548;13.406;2022-10-17T11:32:08;23.40;59.10
75517;DHT22;64097;52.548;13.406;2022-10-17T11:34:44;23.40;58.90
75517;DHT22;64097;52.548;13.406;2022-10-17T11:37:16;23.50;58.80
75517;DHT22;64097;52.548;13.406;2022-10-17T11:39:59;23.50;58.50
75517;DHT22;64097;52.548;13.406;2022-10-17T11:42:27;23.50;58.20
75517;DHT22;64097;52.548;13.406;2022-10-17T11:45:10;23.50;58.10
75517;DHT22;64097;52.548;13.406;2022-10-17T11:47:52;23.60;58.00
75517;DHT22;64097;52.548;13.406;2022-10-17T11:55:24;23.70;57.60
75517;DHT22;64097;52.548;13.406;2022-10-17T12:00:51;23.80;57.30
75517;DHT22;64097;52.548;13.406;2022-10-17T12:06:02;23.90;57.20
75517;DHT22;64097;52.548;13.406;2022-10-17T12:08:45;23.90;56.80
75517;DHT22;64097;52.548;13.406;2022-10-17T12:11:18;23.90;57.40
75517;DHT22;64097;52.548;13.406;2022-10-17T12:13:51;24.00;56.70
75517;DHT22;64097;52.548;13.406;2022-10-17T12:18:47;24.10;56.60
75517;DHT22;64097;52.548;13.406;2022-10-17T12:21:14;24.20;56.60
75517;DHT22;64097;52.548;13.406;2022-10-17T12:23:40;24.20;56.40
75517;DHT22;64097;52.548;13.406;2022-10-17T12:26:09;24.30;56.00
75517;DHT22;64097;52.548;13.406;2022-10-17T12:28:42;24.30;55.70
75517;DHT22;64097;52.548;13.406;2022-10-17T12:33:54;24.40;55.60
75517;DHT22;64097;52.548;13.406;2022-10-17T12:38:48;24.40;55.60
75517;DHT22;64097;52.548;13.406;2022-10-17T12:41:14;24.40;55.50
75517;DHT22;64097;52.548;13.406;2022-10-17T12:43:49;24.40;55.60
75517;DHT22;64097;52.548;13.406;2022-10-17T12:46:54;24.40;55.50
75517;DHT22;64097;52.548;13.406;2022-10-17T12:52:16;24.50;55.40
75517;DHT22;64097;52.548;13.406;2022-10-17T12:57:48;24.50;55.20
75517;DHT22;64097;52.548;13.406;2022-10-17T13:03:12;24.50;55.70
75517;DHT22;64097;52.548;13.406;2022-10-17T13:05:41;24.50;54.90
75517;DHT22;64097;52.548;13.406;2022-10-17T13:10:51;24.60;54.90
75517;DHT22;64097;52.548;13.406;2022-10-17T13:16:30;24.60;54.80
75517;DHT22;64097;52.548;13.406;2022-10-17T13:18:57;24.70;54.50
75517;DHT22;64097;52.548;13.406;2022-10-17T13:21:23;24.70;54.60
75517;DHT22;64097;52.548;13.406;2022-10-17T13:23:49;24.70;54.60
75517;DHT22;64097;52.548;13.406;2022-10-17T13:26:25;24.70;54.50
75517;DHT22;64097;52.548;13.406;2022-10-17T13:29:08;24.70;54.50
75517;DHT22;64097;52.548;13.406;2022-10-17T13:31:39;24.70;54.40
75517;DHT22;64097;52.548;13.406;2022-10-17T13:34:16;24.70;54.20
75517;DHT22;64097;52.548;13.406;2022-10-17T13:36:44;24.80;54.20
75517;DHT22;64097;52.548;13.406;2022-10-17T13:39:32;24.80;54.30
75517;DHT22;64097;52.548;13.406;2022-10-17T13:42:00;24.80;54.10
75517;DHT22;64097;52.548;13.406;2022-10-17T13:44:28;24.90;54.10
75517;DHT22;64097;52.548;13.406;2022-10-17T13:46:56;24.90;54.00
75517;DHT22;64097;52.548;13.406;2022-10-17T13:52:02;24.90;54.00
75517;DHT22;64097;52.548;13.406;2022-10-17T13:54:48;24.90;54.00
75517;DHT22;64097;52.548;13.406;2022-10-17T13:57:22;24.90;53.90
75517;DHT22;64097;52.548;13.406;2022-10-17T13:59:56;24.90;53.90
